sensor_id;sensor_type;location;lat;lon;timestamp;P1;durP1;ratioP1;P2;durP2;ratioP2
71435;SDS011;59251;51.326;12.370;2022-12-07T00:01:12;16.03;;;6.23;;
71435;SDS011;59251;51.326;12.370;2022-12-07T00:03:40;15.60;;;5.40;;
71435;SDS011;59251;51.326;12.370;2022-12-07T00:06:07;15.07;;;5.65;;
71435;SDS011;59251;51.326;12.370;2022-12-07T00:08:35;14.45;;;5.57;;
71435;SDS011;59251;51.326;12.370;2022-12-07T00:11:05;15.68;;;5.55;;
71435;SDS011;59251;51.326;12.370;2022-12-07T00:13:32;17.57;;;5.97;;
71435;SDS011;59251;51.326;12.370;2022-12-07T00:16:20;16.10;;;5.80;;
71435;SDS011;59251;51.326;12.370;2022-12-07T00:18:45;14.90;;;5.28;;
71435;SDS011;59251;51.326;12.370;2022-12-07T00:21:12;13.82;;;5.22;;
71435;SDS011;59251;51.326;12.370;2022-12-07T00:23:40;14.93;;;5.30;;
71435;SDS011;59251;51.326;12.370;2022-12-07T00:26:07;16.08;;;5.20;;
71435;SDS011;59251;51.326;12.370;2022-12-07T00:28:38;15.15;;;5.43;;
71435;SDS011;59251;51.326;12.370;2022-12-07T00:31:04;13.97;;;5.17;;
71435;SDS011;59251;51.326;12.370;2022-12-07T00:33:34;15.45;;;5.50;;
71435;SDS011;59251;51.326;12.370;2022-12-07T00:36:00;16.60;;;6.28;;
71435;SDS011;59251;51.326;12.370;2022-12-07T00:38:27;17.17;;;6.20;;
71435;SDS011;59251;51.326;12.370;2022-12-07T00:40:59;14.30;;;5.78;;
71435;SDS011;59251;51.326;12.370;2022-12-07T00:43:26;14.88;;;5.30;;
71435;SDS011;59251;51.326;12.370;2022-12-07T00:45:52;16.45;;;6.22;;
71435;SDS011;59251;51.326;12.370;2022-12-07T00:48:18;15.50;;;5.87;;
71435;SDS011;59251;51.326;12.370;2022-12-07T00:50:43;16.63;;;6.38;;
71435;SDS011;59251;51.326;12.370;2022-12-07T00:53:09;16.53;;;5.90;;
71435;SDS011;59251;51.326;12.370;2022-12-07T00:55:34;15.27;;;6.63;;
71435;SDS011;59251;51.326;12.370;2022-12-07T00:58:00;17.90;;;6.40;;
71435;SDS011;59251;51.326;12.370;2022-12-07T01:00:26;17.83;;;6.53;;
71435;SDS011;59251;51.326;12.370;2022-12-07T01:02:51;18.30;;;6.87;;
71435;SDS011;59251;51.326;12.370;2022-12-07T01:05:17;17.58;;;6.72;;
71435;SDS011;59251;51.326;12.370;2022-12-07T01:07:42;17.37;;;6.90;;
71435;SDS011;59251;51.326;12.370;2022-12-07T01:10:07;17.80;;;7.23;;
71435;SDS011;59251;51.326;12.370;2022-12-07T01:12:33;18.98;;;6.97;;
71435;SDS011;59251;51.326;12.370;2022-12-07T01:14:59;17.80;;;6.73;;
71435;SDS011;59251;51.326;12.370;2022-12-07T01:17:24;17.30;;;6.47;;
71435;SDS011;59251;51.326;12.370;2022-12-07T01:19:49;18.43;;;7.37;;
71435;SDS011;59251;51.326;12.370;2022-12-07T01:22:15;17.57;;;6.80;;
71435;SDS011;59251;51.326;12.370;2022-12-07T01:24:40;18.43;;;7.50;;
71435;SDS011;59251;51.326;12.370;2022-12-07T01:27:05;17.02;;;6.05;;
71435;SDS011;59251;51.326;12.370;2022-12-07T01:29:31;18.27;;;7.53;;
71435;SDS011;59251;51.326;12.370;2022-12-07T01:31:56;16.47;;;6.27;;
71435;SDS011;59251;51.326;12.370;2022-12-07T01:34:22;17.40;;;7.03;;
71435;SDS011;59251;51.326;12.370;2022-12-07T01:36:47;17.20;;;7.03;;
71435;SDS011;59251;51.326;12.370;2022-12-07T01:39:12;16.03;;;6.60;;
71435;SDS011;59251;51.326;12.370;2022-12-07T01:41:39;20.65;;;7.38;;
71435;SDS011;59251;51.326;12.370;2022-12-07T01:46:47;15.70;;;7.15;;
71435;SDS011;59251;51.326;12.370;2022-12-07T01:51:48;17.95;;;6.70;;
71435;SDS011;59251;51.326;12.370;2022-12-07T01:54:16;16.92;;;6.93;;
71435;SDS011;59251;51.326;12.370;2022-12-07T01:56:45;17.10;;;6.80;;
71435;SDS011;59251;51.326;12.370;2022-12-07T01:59:16;19.80;;;7.72;;
71435;SDS011;59251;51.326;12.370;2022-12-07T02:01:42;17.33;;;6.75;;
71435;SDS011;59251;51.326;12.370;2022-12-07T02:04:08;19.33;;;7.32;;
71435;SDS011;59251;51.326;12.370;2022-12-07T02:06:34;18.33;;;7.83;;
71435;SDS011;59251;51.326;12.370;2022-12-07T02:09:01;18.85;;;7.35;;
71435;SDS011;59251;51.326;12.370;2022-12-07T02:11:27;17.15;;;6.60;;
71435;SDS011;59251;51.326;12.370;2022-12-07T02:13:52;18.93;;;7.13;;
71435;SDS011;59251;51.326;12.370;2022-12-07T02:16:25;20.08;;;6.88;;
71435;SDS011;59251;51.326;12.370;2022-12-07T02:22:01;20.13;;;7.93;;
71435;SDS011;59251;51.326;12.370;2022-12-07T02:35:35;19.75;;;7.38;;
71435;SDS011;59251;51.326;12.370;2022-12-07T02:38:15;20.92;;;7.15;;
71435;SDS011;59251;51.326;12.370;2022-12-07T02:45:50;18.27;;;6.67;;
71435;SDS011;59251;51.326;12.370;2022-12-07T02:48:18;19.17;;;7.43;;
71435;SDS011;59251;51.326;12.370;2022-12-07T02:50:48;17.10;;;6.05;;
71435;SDS011;59251;51.326;12.370;2022-12-07T02:56:17;17.58;;;6.18;;
71435;SDS011;59251;51.326;12.370;2022-12-07T03:07:27;16.40;;;5.55;;
71435;SDS011;59251;51.326;12.370;2022-12-07T03:15:39;16.90;;;5.78;;
71435;SDS011;59251;51.326;12.370;2022-12-07T03:18:11;13.63;;;4.95;;
71435;SDS011;59251;51.326;12.370;2022-12-07T03:20:41;16.45;;;5.80;;
71435;SDS011;59251;51.326;12.370;2022-12-07T03:23:09;14.55;;;5.93;;
71435;SDS011;59251;51.326;12.370;2022-12-07T03:25:39;16.97;;;5.93;;
71435;SDS011;59251;51.326;12.370;2022-12-07T03:28:07;12.60;;;4.75;;
71435;SDS011;59251;51.326;12.370;2022-12-07T03:30:49;13.50;;;5.40;;
71435;SDS011;59251;51.326;12.370;2022-12-07T03:33:24;15.00;;;4.78;;
71435;SDS011;59251;51.326;12.370;2022-12-07T03:36:00;14.82;;;5.20;;
71435;SDS011;59251;51.326;12.370;2022-12-07T03:38:40;14.13;;;5.30;;
71435;SDS011;59251;51.326;12.370;2022-12-07T03:41:14;16.42;;;5.82;;
71435;SDS011;59251;51.326;12.370;2022-12-07T03:43:49;14.57;;;4.93;;
71435;SDS011;59251;51.326;12.370;2022-12-07T03:46:17;14.07;;;4.82;;
71435;SDS011;59251;51.326;12.370;2022-12-07T03:51:20;15.43;;;5.53;;
71435;SDS011;59251;51.326;12.370;2022-12-07T03:54:10;14.30;;;5.20;;
71435;SDS011;59251;51.326;12.370;2022-12-07T03:56:41;14.20;;;5.53;;
71435;SDS011;59251;51.326;12.370;2022-12-07T03:59:08;16.38;;;5.32;;
71435;SDS011;59251;51.326;12.370;2022-12-07T04:01:34;15.27;;;5.30;;
71435;SDS011;59251;51.326;12.370;2022-12-07T04:04:00;13.23;;;5.35;;
71435;SDS011;59251;51.326;12.370;2022-12-07T04:06:25;15.30;;;4.80;;
71435;SDS011;59251;51.326;12.370;2022-12-07T04:08:51;14.50;;;5.17;;
71435;SDS011;59251;51.326;12.370;2022-12-07T04:11:16;14.40;;;5.37;;
71435;SDS011;59251;51.326;12.370;2022-12-07T04:13:41;14.17;;;5.03;;
71435;SDS011;59251;51.326;12.370;2022-12-07T04:16:25;14.90;;;5.35;;
71435;SDS011;59251;51.326;12.370;2022-12-07T04:18:51;11.03;;;4.33;;
71435;SDS011;59251;51.326;12.370;2022-12-07T04:21:16;14.40;;;5.70;;
71435;SDS011;59251;51.326;12.370;2022-12-07T04:23:41;14.32;;;5.38;;
71435;SDS011;59251;51.326;12.370;2022-12-07T04:26:07;14.40;;;5.33;;
71435;SDS011;59251;51.326;12.370;2022-12-07T04:28:32;13.80;;;5.17;;
71435;SDS011;59251;51.326;12.370;2022-12-07T04:30:58;13.00;;;5.00;;
71435;SDS011;59251;51.326;12.370;2022-12-07T04:33:23;13.57;;;5.20;;
71435;SDS011;59251;51.326;12.370;2022-12-07T04:35:48;15.13;;;4.57;;
71435;SDS011;59251;51.326;12.370;2022-12-07T04:38:14;12.77;;;4.43;;
71435;SDS011;59251;51.326;12.370;2022-12-07T04:40:39;13.82;;;5.30;;
71435;SDS011;59251;51.326;12.370;2022-12-07T04:43:04;13.20;;;4.30;;
71435;SDS011;59251;51.326;12.370;2022-12-07T04:45:30;12.47;;;4.77;;
71435;SDS011;59251;51.326;12.370;2022-12-07T04:47:55;12.47;;;4.70;;
71435;SDS011;59251;51.326;12.370;2022-12-07T04:50:21;12.10;;;4.93;;
71435;SDS011;59251;51.326;12.370;2022-12-07T04:52:46;12.97;;;4.57;;
71435;SDS011;59251;51.326;12.370;2022-12-07T04:55:11;15.77;;;4.75;;
71435;SDS011;59251;51.326;12.370;2022-12-07T04:57:37;12.88;;;4.80;;
71435;SDS011;59251;51.326;12.370;2022-12-07T05:00:02;15.00;;;5.07;;
71435;SDS011;59251;51.326;12.370;2022-12-07T05:02:28;12.70;;;4.65;;
71435;SDS011;59251;51.326;12.370;2022-12-07T05:04:53;12.95;;;4.95;;
71435;SDS011;59251;51.326;12.370;2022-12-07T05:07:19;11.73;;;4.73;;
71435;SDS011;59251;51.326;12.370;2022-12-07T05:09:44;12.10;;;4.17;;
71435;SDS011;59251;51.326;12.370;2022-12-07T05:12:10;11.23;;;4.17;;
71435;SDS011;59251;51.326;12.370;2022-12-07T05:14:35;11.10;;;4.33;;
71435;SDS011;59251;51.326;12.370;2022-12-07T05:17:00;13.17;;;4.77;;
71435;SDS011;59251;51.326;12.370;2022-12-07T05:19:26;13.38;;;4.90;;
71435;SDS011;59251;51.326;12.370;2022-12-07T05:21:51;10.00;;;3.67;;
71435;SDS011;59251;51.326;12.370;2022-12-07T05:24:17;10.07;;;4.00;;
71435;SDS011;59251;51.326;12.370;2022-12-07T05:26:43;13.25;;;4.85;;
71435;SDS011;59251;51.326;12.370;2022-12-07T05:29:15;14.57;;;5.67;;
71435;SDS011;59251;51.326;12.370;2022-12-07T05:31:41;11.73;;;4.05;;
71435;SDS011;59251;51.326;12.370;2022-12-07T05:34:07;14.82;;;5.00;;
71435;SDS011;59251;51.326;12.370;2022-12-07T05:36:33;13.27;;;5.07;;
71435;SDS011;59251;51.326;12.370;2022-12-07T05:38:59;14.10;;;5.38;;
71435;SDS011;59251;51.326;12.370;2022-12-07T05:41:24;14.60;;;5.63;;
71435;SDS011;59251;51.326;12.370;2022-12-07T05:44:08;16.08;;;6.03;;
71435;SDS011;59251;51.326;12.370;2022-12-07T05:46:34;12.10;;;4.33;;
71435;SDS011;59251;51.326;12.370;2022-12-07T05:49:00;11.73;;;4.43;;
71435;SDS011;59251;51.326;12.370;2022-12-07T05:51:26;14.15;;;6.07;;
71435;SDS011;59251;51.326;12.370;2022-12-07T05:53:51;14.47;;;6.10;;
71435;SDS011;59251;51.326;12.370;2022-12-07T05:56:17;13.80;;;5.33;;
71435;SDS011;59251;51.326;12.370;2022-12-07T05:58:42;15.60;;;6.30;;
71435;SDS011;59251;51.326;12.370;2022-12-07T06:01:26;15.05;;;4.88;;
71435;SDS011;59251;51.326;12.370;2022-12-07T06:03:52;13.30;;;5.47;;
71435;SDS011;59251;51.326;12.370;2022-12-07T06:06:17;12.82;;;5.38;;
71435;SDS011;59251;51.326;12.370;2022-12-07T06:08:42;17.10;;;6.47;;
71435;SDS011;59251;51.326;12.370;2022-12-07T06:11:08;16.30;;;5.93;;
71435;SDS011;59251;51.326;12.370;2022-12-07T06:13:52;14.00;;;5.57;;
71435;SDS011;59251;51.326;12.370;2022-12-07T06:16:17;14.20;;;5.13;;
71435;SDS011;59251;51.326;12.370;2022-12-07T06:18:43;16.65;;;6.05;;
71435;SDS011;59251;51.326;12.370;2022-12-07T06:21:08;16.08;;;6.30;;
71435;SDS011;59251;51.326;12.370;2022-12-07T06:23:34;16.37;;;6.33;;
71435;SDS011;59251;51.326;12.370;2022-12-07T06:25:59;16.10;;;6.60;;
71435;SDS011;59251;51.326;12.370;2022-12-07T06:28:25;18.30;;;7.23;;
71435;SDS011;59251;51.326;12.370;2022-12-07T06:30:59;11.97;;;4.53;;
71435;SDS011;59251;51.326;12.370;2022-12-07T06:33:26;17.13;;;6.60;;
71435;SDS011;59251;51.326;12.370;2022-12-07T06:35:52;19.50;;;7.18;;
71435;SDS011;59251;51.326;12.370;2022-12-07T06:38:18;16.93;;;6.77;;
71435;SDS011;59251;51.326;12.370;2022-12-07T06:40:43;18.23;;;7.43;;
71435;SDS011;59251;51.326;12.370;2022-12-07T06:43:09;17.77;;;8.17;;
71435;SDS011;59251;51.326;12.370;2022-12-07T06:45:34;18.52;;;6.70;;
71435;SDS011;59251;51.326;12.370;2022-12-07T06:48:00;23.87;;;7.80;;
71435;SDS011;59251;51.326;12.370;2022-12-07T06:50:25;20.13;;;7.60;;
71435;SDS011;59251;51.326;12.370;2022-12-07T06:52:51;22.50;;;8.87;;
71435;SDS011;59251;51.326;12.370;2022-12-07T06:55:16;18.58;;;6.95;;
71435;SDS011;59251;51.326;12.370;2022-12-07T06:57:42;20.77;;;8.07;;
71435;SDS011;59251;51.326;12.370;2022-12-07T07:00:07;21.20;;;8.30;;
71435;SDS011;59251;51.326;12.370;2022-12-07T07:02:33;20.20;;;8.70;;
71435;SDS011;59251;51.326;12.370;2022-12-07T07:04:58;20.23;;;7.90;;
71435;SDS011;59251;51.326;12.370;2022-12-07T07:07:24;19.33;;;8.35;;
71435;SDS011;59251;51.326;12.370;2022-12-07T07:09:49;20.50;;;7.57;;
71435;SDS011;59251;51.326;12.370;2022-12-07T07:12:15;17.17;;;7.20;;
71435;SDS011;59251;51.326;12.370;2022-12-07T07:14:40;22.60;;;7.60;;
71435;SDS011;59251;51.326;12.370;2022-12-07T07:17:06;20.00;;;8.50;;
71435;SDS011;59251;51.326;12.370;2022-12-07T07:19:32;18.00;;;7.03;;
71435;SDS011;59251;51.326;12.370;2022-12-07T07:21:57;17.63;;;7.05;;
71435;SDS011;59251;51.326;12.370;2022-12-07T07:24:23;18.17;;;7.57;;
71435;SDS011;59251;51.326;12.370;2022-12-07T07:26:48;20.17;;;7.97;;
71435;SDS011;59251;51.326;12.370;2022-12-07T07:29:13;19.30;;;8.30;;
71435;SDS011;59251;51.326;12.370;2022-12-07T07:31:39;18.73;;;7.83;;
71435;SDS011;59251;51.326;12.370;2022-12-07T07:34:04;18.60;;;8.00;;
71435;SDS011;59251;51.326;12.370;2022-12-07T07:36:30;20.33;;;8.18;;
71435;SDS011;59251;51.326;12.370;2022-12-07T07:38:56;19.57;;;8.03;;
71435;SDS011;59251;51.326;12.370;2022-12-07T07:41:21;18.07;;;8.27;;
71435;SDS011;59251;51.326;12.370;2022-12-07T07:43:46;19.85;;;8.30;;
71435;SDS011;59251;51.326;12.370;2022-12-07T07:46:12;19.87;;;7.57;;
71435;SDS011;59251;51.326;12.370;2022-12-07T07:48:37;18.37;;;7.70;;
71435;SDS011;59251;51.326;12.370;2022-12-07T07:51:06;19.23;;;8.43;;
71435;SDS011;59251;51.326;12.370;2022-12-07T07:53:33;18.38;;;7.35;;
71435;SDS011;59251;51.326;12.370;2022-12-07T07:55:58;17.57;;;7.00;;
71435;SDS011;59251;51.326;12.370;2022-12-07T07:58:24;16.77;;;6.80;;
71435;SDS011;59251;51.326;12.370;2022-12-07T08:00:49;20.07;;;8.00;;
71435;SDS011;59251;51.326;12.370;2022-12-07T08:03:15;18.30;;;7.95;;
71435;SDS011;59251;51.326;12.370;2022-12-07T08:05:40;18.03;;;7.70;;
71435;SDS011;59251;51.326;12.370;2022-12-07T08:08:06;17.35;;;7.47;;
71435;SDS011;59251;51.326;12.370;2022-12-07T08:10:31;17.65;;;6.95;;
71435;SDS011;59251;51.326;12.370;2022-12-07T08:12:57;16.73;;;6.90;;
71435;SDS011;59251;51.326;12.370;2022-12-07T08:15:35;24.90;;;8.63;;
71435;SDS011;59251;51.326;12.370;2022-12-07T08:18:02;18.30;;;7.73;;
71435;SDS011;59251;51.326;12.370;2022-12-07T08:20:29;19.20;;;7.55;;
71435;SDS011;59251;51.326;12.370;2022-12-07T08:22:55;20.00;;;8.80;;
71435;SDS011;59251;51.326;12.370;2022-12-07T08:25:21;17.55;;;7.55;;
71435;SDS011;59251;51.326;12.370;2022-12-07T08:27:50;17.63;;;7.05;;
71435;SDS011;59251;51.326;12.370;2022-12-07T08:30:16;17.37;;;7.83;;
71435;SDS011;59251;51.326;12.370;2022-12-07T08:32:41;14.38;;;5.63;;
71435;SDS011;59251;51.326;12.370;2022-12-07T08:35:09;18.20;;;6.07;;
71435;SDS011;59251;51.326;12.370;2022-12-07T08:37:34;18.40;;;7.30;;
71435;SDS011;59251;51.326;12.370;2022-12-07T08:40:00;18.98;;;6.55;;
71435;SDS011;59251;51.326;12.370;2022-12-07T08:42:26;15.10;;;5.43;;
71435;SDS011;59251;51.326;12.370;2022-12-07T08:44:55;18.10;;;6.40;;
71435;SDS011;59251;51.326;12.370;2022-12-07T08:47:22;15.27;;;5.78;;
71435;SDS011;59251;51.326;12.370;2022-12-07T08:49:48;14.47;;;5.60;;
71435;SDS011;59251;51.326;12.370;2022-12-07T08:52:16;13.85;;;5.03;;
71435;SDS011;59251;51.326;12.370;2022-12-07T08:54:42;15.40;;;5.70;;
71435;SDS011;59251;51.326;12.370;2022-12-07T08:57:08;15.68;;;5.82;;
71435;SDS011;59251;51.326;12.370;2022-12-07T08:59:35;15.90;;;6.07;;
71435;SDS011;59251;51.326;12.370;2022-12-07T09:02:02;16.23;;;5.88;;
71435;SDS011;59251;51.326;12.370;2022-12-07T09:04:27;14.43;;;5.03;;
71435;SDS011;59251;51.326;12.370;2022-12-07T09:06:53;12.77;;;5.13;;
71435;SDS011;59251;51.326;12.370;2022-12-07T09:09:19;13.27;;;5.38;;
71435;SDS011;59251;51.326;12.370;2022-12-07T09:11:45;13.73;;;4.97;;
71435;SDS011;59251;51.326;12.370;2022-12-07T09:14:11;13.50;;;4.97;;
71435;SDS011;59251;51.326;12.370;2022-12-07T09:16:37;12.23;;;3.60;;
71435;SDS011;59251;51.326;12.370;2022-12-07T09:19:03;14.32;;;5.20;;
71435;SDS011;59251;51.326;12.370;2022-12-07T09:21:28;18.40;;;4.97;;
71435;SDS011;59251;51.326;12.370;2022-12-07T09:23:53;14.23;;;4.37;;
71435;SDS011;59251;51.326;12.370;2022-12-07T09:26:19;15.68;;;4.20;;
71435;SDS011;59251;51.326;12.370;2022-12-07T09:28:44;10.60;;;4.22;;
71435;SDS011;59251;51.326;12.370;2022-12-07T09:31:10;10.73;;;4.43;;
71435;SDS011;59251;51.326;12.370;2022-12-07T09:33:35;12.73;;;4.73;;
71435;SDS011;59251;51.326;12.370;2022-12-07T09:36:01;16.23;;;5.43;;
71435;SDS011;59251;51.326;12.370;2022-12-07T09:38:28;15.38;;;5.22;;
71435;SDS011;59251;51.326;12.370;2022-12-07T09:40:54;15.43;;;5.22;;
71435;SDS011;59251;51.326;12.370;2022-12-07T09:43:22;13.07;;;4.88;;
71435;SDS011;59251;51.326;12.370;2022-12-07T09:45:50;12.90;;;4.93;;
71435;SDS011;59251;51.326;12.370;2022-12-07T09:48:19;15.20;;;5.18;;
71435;SDS011;59251;51.326;12.370;2022-12-07T09:50:47;15.60;;;5.35;;
71435;SDS011;59251;51.326;12.370;2022-12-07T09:53:22;15.70;;;5.20;;
71435;SDS011;59251;51.326;12.370;2022-12-07T09:55:57;11.63;;;4.60;;
71435;SDS011;59251;51.326;12.370;2022-12-07T09:58:25;15.80;;;5.30;;
71435;SDS011;59251;51.326;12.370;2022-12-07T10:00:57;12.63;;;4.30;;
71435;SDS011;59251;51.326;12.370;2022-12-07T10:03:28;14.25;;;5.03;;
71435;SDS011;59251;51.326;12.370;2022-12-07T10:05:54;12.68;;;4.35;;
71435;SDS011;59251;51.326;12.370;2022-12-07T10:08:20;12.57;;;4.47;;
71435;SDS011;59251;51.326;12.370;2022-12-07T10:10:48;14.37;;;5.27;;
71435;SDS011;59251;51.326;12.370;2022-12-07T10:13:20;13.27;;;4.88;;
71435;SDS011;59251;51.326;12.370;2022-12-07T10:15:57;12.93;;;3.80;;
71435;SDS011;59251;51.326;12.370;2022-12-07T10:18:27;16.00;;;4.93;;
71435;SDS011;59251;51.326;12.370;2022-12-07T10:21:19;13.90;;;4.93;;
71435;SDS011;59251;51.326;12.370;2022-12-07T10:24:31;15.45;;;5.60;;
71435;SDS011;59251;51.326;12.370;2022-12-07T10:29:15;8.82;;;2.38;;
71435;SDS011;59251;51.326;12.370;2022-12-07T10:32:06;12.23;;;4.20;;
71435;SDS011;59251;51.326;12.370;2022-12-07T10:34:41;11.43;;;4.80;;
71435;SDS011;59251;51.326;12.370;2022-12-07T10:42:21;16.15;;;5.10;;
71435;SDS011;59251;51.326;12.370;2022-12-07T10:47:58;13.40;;;5.13;;
71435;SDS011;59251;51.326;12.370;2022-12-07T10:51:15;12.55;;;4.57;;
71435;SDS011;59251;51.326;12.370;2022-12-07T10:59:02;11.70;;;4.00;;
71435;SDS011;59251;51.326;12.370;2022-12-07T11:01:31;14.17;;;4.60;;
71435;SDS011;59251;51.326;12.370;2022-12-07T11:06:58;11.68;;;3.60;;
71435;SDS011;59251;51.326;12.370;2022-12-07T11:09:42;9.57;;;2.78;;
71435;SDS011;59251;51.326;12.370;2022-12-07T11:18:03;12.60;;;4.20;;
71435;SDS011;59251;51.326;12.370;2022-12-07T11:26:09;15.23;;;4.65;;
71435;SDS011;59251;51.326;12.370;2022-12-07T11:31:32;17.02;;;5.82;;
71435;SDS011;59251;51.326;12.370;2022-12-07T11:36:53;14.07;;;5.32;;
71435;SDS011;59251;51.326;12.370;2022-12-07T11:39:37;14.05;;;5.05;;
71435;SDS011;59251;51.326;12.370;2022-12-07T11:45:14;11.10;;;3.92;;
71435;SDS011;59251;51.326;12.370;2022-12-07T11:47:47;11.35;;;4.35;;
71435;SDS011;59251;51.326;12.370;2022-12-07T11:50:33;12.60;;;4.50;;
71435;SDS011;59251;51.326;12.370;2022-12-07T11:59:01;11.02;;;4.00;;
71435;SDS011;59251;51.326;12.370;2022-12-07T12:03:38;10.93;;;3.00;;
71435;SDS011;59251;51.326;12.370;2022-12-07T12:06:08;10.02;;;3.28;;
71435;SDS011;59251;51.326;12.370;2022-12-07T12:22:47;9.65;;;2.75;;
71435;SDS011;59251;51.326;12.370;2022-12-07T12:25:24;6.90;;;1.77;;
71435;SDS011;59251;51.326;12.370;2022-12-07T12:27:54;8.00;;;1.95;;
71435;SDS011;59251;51.326;12.370;2022-12-07T12:30:34;7.55;;;1.90;;
71435;SDS011;59251;51.326;12.370;2022-12-07T12:33:13;7.83;;;2.13;;
71435;SDS011;59251;51.326;12.370;2022-12-07T12:35:44;8.52;;;2.13;;
71435;SDS011;59251;51.326;12.370;2022-12-07T12:38:21;7.13;;;1.70;;
71435;SDS011;59251;51.326;12.370;2022-12-07T12:40:52;9.47;;;1.60;;
71435;SDS011;59251;51.326;12.370;2022-12-07T12:54:21;7.63;;;1.73;;
71435;SDS011;59251;51.326;12.370;2022-12-07T12:56:53;6.93;;;1.60;;
71435;SDS011;59251;51.326;12.370;2022-12-07T12:59:42;6.47;;;1.30;;
71435;SDS011;59251;51.326;12.370;2022-12-07T13:07:51;7.70;;;1.67;;
71435;SDS011;59251;51.326;12.370;2022-12-07T13:10:18;5.78;;;1.35;;
71435;SDS011;59251;51.326;12.370;2022-12-07T13:18:40;6.20;;;1.50;;
71435;SDS011;59251;51.326;12.370;2022-12-07T13:36:59;5.00;;;0.70;;
71435;SDS011;59251;51.326;12.370;2022-12-07T13:39:46;5.68;;;1.10;;
71435;SDS011;59251;51.326;12.370;2022-12-07T13:42:26;6.93;;;1.10;;
71435;SDS011;59251;51.326;12.370;2022-12-07T13:44:53;5.50;;;0.90;;
71435;SDS011;59251;51.326;12.370;2022-12-07T13:47:36;5.43;;;1.00;;
71435;SDS011;59251;51.326;12.370;2022-12-07T13:50:25;4.40;;;0.82;;
71435;SDS011;59251;51.326;12.370;2022-12-07T13:53:00;3.60;;;0.63;;
71435;SDS011;59251;51.326;12.370;2022-12-07T13:55:26;5.22;;;0.80;;
71435;SDS011;59251;51.326;12.370;2022-12-07T13:57:53;5.27;;;0.90;;
71435;SDS011;59251;51.326;12.370;2022-12-07T14:02:58;6.80;;;0.85;;
71435;SDS011;59251;51.326;12.370;2022-12-07T14:05:27;6.00;;;0.90;;
71435;SDS011;59251;51.326;12.370;2022-12-07T14:07:55;6.85;;;1.05;;
71435;SDS011;59251;51.326;12.370;2022-12-07T14:12:57;5.40;;;0.88;;
71435;SDS011;59251;51.326;12.370;2022-12-07T14:15:24;8.55;;;0.98;;
71435;SDS011;59251;51.326;12.370;2022-12-07T14:17:54;5.07;;;0.98;;
71435;SDS011;59251;51.326;12.370;2022-12-07T14:20:30;6.97;;;1.00;;
71435;SDS011;59251;51.326;12.370;2022-12-07T14:23:01;6.27;;;1.00;;
71435;SDS011;59251;51.326;12.370;2022-12-07T14:25:44;6.57;;;0.98;;
71435;SDS011;59251;51.326;12.370;2022-12-07T14:28:36;8.80;;;1.25;;
71435;SDS011;59251;51.326;12.370;2022-12-07T14:31:01;5.57;;;1.55;;
71435;SDS011;59251;51.326;12.370;2022-12-07T14:33:28;6.63;;;1.00;;
71435;SDS011;59251;51.326;12.370;2022-12-07T14:35:54;6.43;;;1.00;;
71435;SDS011;59251;51.326;12.370;2022-12-07T14:38:22;5.50;;;0.75;;
71435;SDS011;59251;51.326;12.370;2022-12-07T14:40:49;7.00;;;0.90;;
71435;SDS011;59251;51.326;12.370;2022-12-07T14:43:16;5.80;;;1.05;;
71435;SDS011;59251;51.326;12.370;2022-12-07T14:45:43;8.20;;;1.30;;
71435;SDS011;59251;51.326;12.370;2022-12-07T14:48:12;8.13;;;1.10;;
71435;SDS011;59251;51.326;12.370;2022-12-07T14:50:40;6.60;;;1.10;;
71435;SDS011;59251;51.326;12.370;2022-12-07T14:53:10;8.45;;;1.30;;
71435;SDS011;59251;51.326;12.370;2022-12-07T14:55:39;6.37;;;1.10;;
71435;SDS011;59251;51.326;12.370;2022-12-07T14:58:05;5.45;;;1.40;;
71435;SDS011;59251;51.326;12.370;2022-12-07T15:00:30;5.67;;;1.07;;
71435;SDS011;59251;51.326;12.370;2022-12-07T15:02:56;4.17;;;0.70;;
71435;SDS011;59251;51.326;12.370;2022-12-07T15:05:22;5.00;;;0.73;;
71435;SDS011;59251;51.326;12.370;2022-12-07T15:07:48;7.00;;;1.87;;
71435;SDS011;59251;51.326;12.370;2022-12-07T15:10:16;6.13;;;1.23;;
71435;SDS011;59251;51.326;12.370;2022-12-07T15:12:44;6.68;;;0.73;;
71435;SDS011;59251;51.326;12.370;2022-12-07T15:15:10;4.75;;;0.90;;
71435;SDS011;59251;51.326;12.370;2022-12-07T15:17:36;4.73;;;1.00;;
71435;SDS011;59251;51.326;12.370;2022-12-07T15:20:01;4.97;;;0.70;;
71435;SDS011;59251;51.326;12.370;2022-12-07T15:22:28;5.70;;;0.68;;
71435;SDS011;59251;51.326;12.370;2022-12-07T15:24:56;4.95;;;1.00;;
71435;SDS011;59251;51.326;12.370;2022-12-07T15:27:21;8.35;;;1.40;;
71435;SDS011;59251;51.326;12.370;2022-12-07T15:29:47;6.63;;;0.97;;
71435;SDS011;59251;51.326;12.370;2022-12-07T15:32:12;6.13;;;0.93;;
71435;SDS011;59251;51.326;12.370;2022-12-07T15:34:38;5.70;;;0.90;;
71435;SDS011;59251;51.326;12.370;2022-12-07T15:37:04;5.13;;;1.10;;
71435;SDS011;59251;51.326;12.370;2022-12-07T15:39:29;6.83;;;1.10;;
71435;SDS011;59251;51.326;12.370;2022-12-07T15:41:55;6.60;;;1.20;;
71435;SDS011;59251;51.326;12.370;2022-12-07T15:44:20;6.38;;;1.15;;
71435;SDS011;59251;51.326;12.370;2022-12-07T15:47:04;7.27;;;1.03;;
71435;SDS011;59251;51.326;12.370;2022-12-07T15:49:30;7.80;;;1.08;;
71435;SDS011;59251;51.326;12.370;2022-12-07T15:51:56;7.87;;;1.30;;
71435;SDS011;59251;51.326;12.370;2022-12-07T15:54:23;4.78;;;0.88;;
71435;SDS011;59251;51.326;12.370;2022-12-07T15:56:50;6.47;;;0.90;;
71435;SDS011;59251;51.326;12.370;2022-12-07T15:59:16;6.43;;;1.00;;
71435;SDS011;59251;51.326;12.370;2022-12-07T16:01:42;5.97;;;1.00;;
71435;SDS011;59251;51.326;12.370;2022-12-07T16:04:07;8.97;;;0.97;;
71435;SDS011;59251;51.326;12.370;2022-12-07T16:06:33;7.43;;;0.83;;
71435;SDS011;59251;51.326;12.370;2022-12-07T16:08:58;6.78;;;1.02;;
71435;SDS011;59251;51.326;12.370;2022-12-07T16:11:24;5.90;;;1.33;;
71435;SDS011;59251;51.326;12.370;2022-12-07T16:13:49;7.30;;;1.60;;
71435;SDS011;59251;51.326;12.370;2022-12-07T16:16:16;7.95;;;1.33;;
71435;SDS011;59251;51.326;12.370;2022-12-07T16:18:43;8.83;;;1.70;;
71435;SDS011;59251;51.326;12.370;2022-12-07T16:21:09;7.25;;;1.27;;
71435;SDS011;59251;51.326;12.370;2022-12-07T16:23:35;7.57;;;1.50;;
71435;SDS011;59251;51.326;12.370;2022-12-07T16:26:08;11.80;;;1.93;;
71435;SDS011;59251;51.326;12.370;2022-12-07T16:28:40;7.28;;;1.80;;
71435;SDS011;59251;51.326;12.370;2022-12-07T16:31:14;7.60;;;1.52;;
71435;SDS011;59251;51.326;12.370;2022-12-07T16:33:41;7.20;;;2.00;;
71435;SDS011;59251;51.326;12.370;2022-12-07T16:36:08;8.10;;;1.60;;
71435;SDS011;59251;51.326;12.370;2022-12-07T16:38:35;7.28;;;1.40;;
71435;SDS011;59251;51.326;12.370;2022-12-07T16:41:01;7.97;;;1.70;;
71435;SDS011;59251;51.326;12.370;2022-12-07T16:43:27;6.60;;;1.60;;
71435;SDS011;59251;51.326;12.370;2022-12-07T16:45:52;8.40;;;1.48;;
71435;SDS011;59251;51.326;12.370;2022-12-07T16:48:18;5.80;;;1.10;;
71435;SDS011;59251;51.326;12.370;2022-12-07T16:50:43;7.60;;;1.50;;
71435;SDS011;59251;51.326;12.370;2022-12-07T16:53:10;6.93;;;1.05;;
71435;SDS011;59251;51.326;12.370;2022-12-07T16:55:39;5.53;;;1.30;;
71435;SDS011;59251;51.326;12.370;2022-12-07T16:58:06;8.70;;;1.50;;
71435;SDS011;59251;51.326;12.370;2022-12-07T17:00:33;10.07;;;1.83;;
71435;SDS011;59251;51.326;12.370;2022-12-07T17:02:58;7.53;;;1.63;;